Time;durP1;ratioP1;P1;durP2;ratioP2;P2;SDS_P1;SDS_P2;PMS_P1;PMS_P2;Temp;Humidity;BMP_temperature;BMP_pressure;BME280_temperature;BME280_humidity;BME280_pressure;Samples;Min_cycle;Max_cycle;Signal;HPM_P1;HPM_P2
2022/02/11 00:01:51;;;;;;;357.80;342.03;;;4.10;99.90;;;;;;4238539;33;20634;-61
2022/02/11 00:07:16;;;;;;;382.83;366.60;;;4.10;99.90;;;;;;4242390;33;20179;-61
2022/02/11 00:09:57;;;;;;;377.17;360.97;;;4.10;99.90;;;;;;4242739;33;20156;-60
2022/02/11 00:12:27;;;;;;;384.27;367.90;;;4.20;99.90;;;;;;4241872;33;20227;-61
2022/02/11 00:15:21;;;;;;;411.87;393.40;;;4.20;99.90;;;;;;4241680;33;20163;-60
2022/02/11 00:17:54;;;;;;;389.37;372.07;;;4.30;99.90;;;;;;4238725;33;20227;-62
2022/02/11 00:20:41;;;;;;;387.47;370.77;;;4.30;99.90;;;;;;4241101;33;20636;-61
2022/02/11 00:23:08;;;;;;;364.27;348.43;;;4.40;99.90;;;;;;4241339;33;20644;-61
2022/02/11 00:25:59;;;;;;;385.07;368.37;;;4.30;99.90;;;;;;4241549;33;20148;-61
2022/02/11 01:02:20;;;;;;;396.03;378.60;;;5.20;99.90;;;;;;4330303;33;20275;-60
2022/02/11 01:04:54;;;;;;;348.00;332.53;;;5.30;99.90;;;;;;4333756;33;20246;-61
2022/02/11 01:07:24;;;;;;;384.77;367.50;;;5.30;99.90;;;;;;4344968;33;20165;-60
2022/02/11 01:10:09;;;;;;;391.60;374.63;;;5.10;99.90;;;;;;4339178;32;20182;-60
2022/02/11 01:12:40;;;;;;;397.90;380.47;;;5.10;99.90;;;;;;4374810;32;20206;-60
2022/02/11 01:15:11;;;;;;;392.17;374.47;;;5.10;99.90;;;;;;4374409;32;20479;-61
2022/02/11 01:17:46;;;;;;;378.47;362.10;;;4.90;99.90;;;;;;4374263;32;20164;-61
2022/02/11 01:20:29;;;;;;;389.03;371.73;;;4.90;99.90;;;;;;4367300;32;20213;-60
2022/02/11 01:23:16;;;;;;;392.17;374.80;;;4.90;99.90;;;;;;4369289;32;20254;-60
2022/02/11 01:28:54;;;;;;;390.23;373.03;;;5.20;99.90;;;;;;4364833;32;20214;-61
2022/02/11 01:31:47;;;;;;;432.03;412.80;;;5.40;99.90;;;;;;4362254;32;20159;-61
2022/02/11 01:34:38;;;;;;;394.20;376.17;;;5.60;99.90;;;;;;4371198;32;20207;-61
2022/02/11 01:37:23;;;;;;;395.37;378.07;;;5.60;99.90;;;;;;4369748;32;20164;-61
2022/02/11 01:51:34;;;;;;;334.23;319.63;;;5.00;99.90;;;;;;4299001;33;20201;-62
2022/02/11 01:54:15;;;;;;;337.67;323.40;;;4.90;99.90;;;;;;4294552;33;20158;-62
2022/02/11 02:05:58;;;;;;;361.33;345.20;;;4.80;99.90;;;;;;4228956;34;20265;-62
2022/02/11 02:09:12;;;;;;;383.53;366.57;;;4.70;99.90;;;;;;4229987;34;20200;-62
2022/02/11 02:11:58;;;;;;;380.93;363.93;;;4.80;99.90;;;;;;4228801;33;20601;-62
2022/02/11 02:18:14;;;;;;;452.80;432.13;;;4.80;99.90;;;;;;4228379;34;20252;-61
2022/02/11 02:21:30;;;;;;;441.53;421.00;;;4.80;99.90;;;;;;4261172;33;20618;-62
2022/02/11 02:26:38;;;;;;;444.87;424.03;;;4.80;99.90;;;;;;4269105;33;20163;-62
2022/02/11 02:38:00;;;;;;;432.00;411.83;;;4.90;99.90;;;;;;4337874;33;20181;-62
2022/02/11 02:57:22;;;;;;;431.90;411.83;;;5.10;99.90;;;;;;4338880;33;20250;-61
2022/02/11 03:00:18;;;;;;;418.60;399.13;;;5.30;99.90;;;;;;4343550;33;20183;-60
2022/02/11 03:14:44;;;;;;;390.30;372.17;;;5.30;99.90;;;;;;4387046;32;20261;-60
2022/02/11 03:17:56;;;;;;;405.80;387.73;;;5.30;99.90;;;;;;4387433;32;20206;-61
2022/02/11 03:34:52;;;;;;;433.43;412.97;;;5.10;99.90;;;;;;4326834;33;20255;-61
2022/02/11 03:49:13;;;;;;;414.03;394.53;;;5.30;99.90;;;;;;4284922;33;20197;-62
2022/02/11 03:52:20;;;;;;;404.80;385.13;;;5.30;99.90;;;;;;4284892;33;20550;-61
2022/02/11 03:55:58;;;;;;;407.43;387.77;;;5.50;99.90;;;;;;4282880;33;20177;-61
2022/02/11 04:22:32;;;;;;;359.27;342.60;;;4.90;99.90;;;;;;4331129;33;20191;-61
2022/02/11 04:56:24;;;;;;;339.43;322.93;;;5.20;99.90;;;;;;4381611;32;20219;-61
2022/02/11 05:01:52;;;;;;;319.17;304.67;;;5.40;99.90;;;;;;4384359;32;20215;-61
2022/02/11 05:04:29;;;;;;;343.17;327.70;;;5.40;99.90;;;;;;4397172;32;20532;-62
2022/02/11 05:07:04;;;;;;;315.87;301.97;;;5.40;99.90;;;;;;4392613;32;20159;-61
2022/02/11 05:09:38;;;;;;;332.47;317.80;;;5.30;99.90;;;;;;4396105;32;20178;-62
2022/02/11 05:12:07;;;;;;;323.37;307.73;;;5.30;99.90;;;;;;4400124;32;20182;-61
2022/02/11 05:14:40;;;;;;;334.33;319.03;;;5.30;99.90;;;;;;4396086;32;20156;-61
2022/02/11 05:17:26;;;;;;;328.27;313.30;;;5.40;99.90;;;;;;4399567;32;20231;-62
2022/02/11 05:20:00;;;;;;;316.93;302.73;;;5.20;99.90;;;;;;4403686;32;20147;-61
2022/02/11 05:22:33;;;;;;;340.20;324.07;;;5.30;99.90;;;;;;4404628;32;20267;-61
2022/02/11 05:25:00;;;;;;;323.47;308.40;;;5.20;99.90;;;;;;4404553;32;20168;-61
2022/02/11 05:27:34;;;;;;;326.93;312.23;;;5.10;99.90;;;;;;4401968;32;20191;-61
2022/02/11 05:30:14;;;;;;;331.57;315.50;;;5.10;99.90;;;;;;4423555;32;20166;-61
2022/02/11 05:32:49;;;;;;;346.37;330.37;;;5.00;99.90;;;;;;4443707;32;20192;-61
2022/02/11 05:38:20;;;;;;;337.13;322.43;;;5.30;99.90;;;;;;4389750;32;20577;-61
2022/02/11 05:47:01;;;;;;;398.13;379.33;;;5.10;99.90;;;;;;4382329;32;20208;-61
2022/02/11 05:49:36;;;;;;;401.00;382.77;;;4.60;99.90;;;;;;4389920;32;20152;-64
2022/02/11 05:55:06;;;;;;;415.07;396.87;;;4.30;99.90;;;;;;4395411;32;20226;-60
2022/02/11 05:57:39;;;;;;;417.63;398.53;;;4.10;99.90;;;;;;4385428;32;20640;-63
2022/02/11 06:00:10;;;;;;;397.63;379.80;;;3.90;99.90;;;;;;4388775;32;20173;-64
2022/02/11 06:02:42;;;;;;;396.60;379.33;;;3.80;99.90;;;;;;4386088;32;20213;-62
2022/02/11 06:05:32;;;;;;;422.67;403.83;;;3.70;99.90;;;;;;4384706;32;20160;-61
2022/02/11 06:07:59;;;;;;;389.10;371.43;;;3.70;99.90;;;;;;4386506;32;20198;-61
2022/02/11 06:10:31;;;;;;;406.07;387.33;;;3.50;99.90;;;;;;4430214;32;20148;-61
2022/02/11 06:13:06;;;;;;;410.93;392.27;;;3.50;99.90;;;;;;4435469;32;20595;-61
2022/02/11 06:15:39;;;;;;;411.33;392.30;;;3.50;99.90;;;;;;4432672;32;20160;-61
2022/02/11 06:18:12;;;;;;;434.57;414.97;;;3.40;99.90;;;;;;4426435;32;20181;-60
2022/02/11 06:20:55;;;;;;;411.23;393.27;;;3.70;99.90;;;;;;4414861;32;20660;-59
2022/02/11 06:23:30;;;;;;;398.43;380.17;;;3.70;99.90;;;;;;4431220;32;20687;-61
2022/02/11 06:26:13;;;;;;;386.07;369.13;;;3.60;99.90;;;;;;4418457;32;20152;-61
2022/02/11 06:29:01;;;;;;;395.43;377.37;;;3.50;99.90;;;;;;4427739;32;20221;-60
2022/02/11 06:31:32;;;;;;;395.17;377.70;;;3.40;99.90;;;;;;4425539;32;20216;-60
2022/02/11 06:34:08;;;;;;;388.30;370.73;;;3.40;99.90;;;;;;4429749;32;20475;-63
2022/02/11 06:37:05;;;;;;;400.43;382.27;;;3.40;99.90;;;;;;4428787;32;20508;-63
2022/02/11 06:39:46;;;;;;;;;;;;;;;;;;;;;
2022/02/11 06:42:14;;;;;;;403.83;385.37;;;3.30;99.90;;;;;;4424797;32;20211;-61
2022/02/11 06:45:02;;;;;;;416.30;397.00;;;3.30;99.90;;;;;;4428541;32;20508;-60
2022/02/11 06:47:36;;;;;;;401.57;383.40;;;3.40;99.90;;;;;;4424418;32;20155;-60
2022/02/11 06:50:07;;;;;;;403.33;384.73;;;3.40;99.90;;;;;;4424071;32;20147;-62
2022/02/11 06:52:55;;;;;;;432.97;412.30;;;3.30;99.90;;;;;;4424951;32;20597;-60
2022/02/11 06:55:25;;;;;;;398.47;380.80;;;3.40;99.90;;;;;;4435520;32;20181;-63
2022/02/11 06:57:55;;;;;;;416.80;397.43;;;3.40;99.90;;;;;;4433933;32;20235;-62
2022/02/11 07:00:32;;;;;;;397.90;379.30;;;3.30;99.90;;;;;;4428984;32;20158;-64
2022/02/11 07:03:07;;;;;;;401.27;382.47;;;3.30;99.90;;;;;;4425464;32;20222;-61
2022/02/11 07:05:51;;;;;;;376.20;359.17;;;3.40;99.90;;;;;;4423780;32;20146;-62
2022/02/11 07:08:20;;;;;;;380.83;363.57;;;3.50;99.90;;;;;;4422861;32;20143;-61
2022/02/11 07:10:57;;;;;;;391.27;373.50;;;3.50;99.90;;;;;;4418100;32;20187;-63
2022/02/11 07:13:34;;;;;;;393.57;374.77;;;3.70;99.90;;;;;;4426996;32;20156;-60
2022/02/11 07:16:10;;;;;;;367.17;350.13;;;3.90;99.90;;;;;;4423697;32;20526;-61
2022/02/11 07:18:56;;;;;;;358.83;342.67;;;4.00;99.90;;;;;;4423239;32;20513;-61
2022/02/11 07:21:30;;;;;;;353.63;338.30;;;4.10;99.90;;;;;;4408908;32;20156;-63
2022/02/11 07:23:57;;;;;;;347.07;331.57;;;4.20;99.90;;;;;;4414204;32;20551;-64
2022/02/11 07:26:30;;;;;;;374.13;357.43;;;4.20;99.90;;;;;;4421663;32;20147;-61
2022/02/11 07:28:56;;;;;;;351.27;335.93;;;4.30;99.90;;;;;;4409738;32;20210;-63
2022/02/11 07:31:23;;;;;;;353.87;338.13;;;4.40;99.90;;;;;;4413260;32;20203;-62
2022/02/11 07:33:55;;;;;;;342.27;326.30;;;4.40;99.90;;;;;;4413622;32;20131;-61
2022/02/11 07:36:22;;;;;;;334.27;319.83;;;4.30;99.90;;;;;;4421821;32;20210;-61
2022/02/11 07:39:07;;;;;;;361.10;343.97;;;4.30;99.90;;;;;;4416349;32;20144;-62
2022/02/11 07:41:34;;;;;;;348.70;333.20;;;4.30;99.90;;;;;;4419157;32;20139;-64
2022/02/11 07:44:01;;;;;;;356.40;340.33;;;4.30;99.90;;;;;;4420907;32;20131;-61
2022/02/11 07:46:40;;;;;;;334.63;319.20;;;4.30;99.90;;;;;;4420796;32;20244;-64
2022/02/11 07:49:10;;;;;;;290.30;277.03;;;4.40;99.90;;;;;;4415914;32;20581;-61
2022/02/11 07:54:50;;;;;;;318.43;303.50;;;4.50;99.90;;;;;;4404981;32;20168;-62
2022/02/11 07:57:27;;;;;;;297.33;283.77;;;4.60;99.90;;;;;;4405631;32;20141;-61
2022/02/11 08:00:06;;;;;;;306.20;291.67;;;4.70;99.90;;;;;;4389544;32;20215;-63
2022/02/11 08:02:46;;;;;;;303.67;289.40;;;4.70;99.90;;;;;;3936949;32;15383694;-63
2022/02/11 08:05:21;;;;;;;304.63;290.60;;;4.60;99.90;;;;;;4405372;32;20207;-62
2022/02/11 08:08:01;;;;;;;315.33;300.97;;;4.40;99.90;;;;;;4406049;32;20135;-63
2022/02/11 08:10:35;;;;;;;327.53;312.67;;;4.20;99.90;;;;;;4397980;32;20232;-61
2022/02/11 08:13:02;;;;;;;335.77;320.73;;;4.00;99.90;;;;;;4405814;32;20479;-62
2022/02/11 08:15:47;;;;;;;341.93;326.33;;;3.90;99.90;;;;;;4405708;32;20133;-63
2022/02/11 08:18:20;;;;;;;342.70;327.50;;;3.80;99.90;;;;;;4405099;32;20189;-61
2022/02/11 08:20:56;;;;;;;344.90;329.40;;;3.80;99.90;;;;;;4392479;32;20167;-61
2022/02/11 08:23:25;;;;;;;351.10;335.33;;;3.70;99.90;;;;;;4390412;32;20197;-61
2022/02/11 08:26:08;;;;;;;362.97;346.27;;;3.70;99.90;;;;;;4390382;32;20178;-64
2022/02/11 08:28:40;;;;;;;342.37;326.23;;;3.80;99.90;;;;;;4390126;32;20632;-61
2022/02/11 08:31:15;;;;;;;376.03;359.30;;;4.00;99.90;;;;;;4401980;32;20172;-61
2022/02/11 08:33:50;;;;;;;338.77;323.03;;;4.30;99.90;;;;;;4405445;32;20147;-62
2022/02/11 08:36:26;;;;;;;341.47;326.03;;;4.40;99.90;;;;;;4405354;32;20154;-62
2022/02/11 08:38:55;;;;;;;343.47;328.27;;;4.30;99.90;;;;;;4405463;32;20151;-62
2022/02/11 08:41:30;;;;;;;346.70;331.43;;;4.20;99.90;;;;;;4392394;32;20218;-64
2022/02/11 08:44:12;;;;;;;353.87;337.40;;;4.20;99.90;;;;;;4390173;32;20206;-62
2022/02/11 08:46:39;;;;;;;350.20;334.63;;;4.30;99.90;;;;;;4390199;32;20143;-64
2022/02/11 08:49:16;;;;;;;352.57;336.70;;;4.50;99.90;;;;;;4389665;32;20137;-61
2022/02/11 08:51:54;;;;;;;326.70;311.23;;;4.60;99.90;;;;;;4401049;32;20552;-61
2022/02/11 08:54:30;;;;;;;318.57;304.10;;;4.80;99.90;;;;;;4405102;32;20128;-61
2022/02/11 08:57:08;;;;;;;307.30;292.37;;;5.10;99.90;;;;;;4387889;32;20215;-64
2022/02/11 08:59:35;;;;;;;308.23;294.20;;;5.60;99.90;;;;;;4396562;32;20613;-64
2022/02/11 09:02:11;;;;;;;262.70;250.80;;;5.80;99.90;;;;;;4404315;32;20163;-64
2022/02/11 09:04:44;;;;;;;255.00;243.10;;;5.90;99.90;;;;;;4406070;32;20163;-62
2022/02/11 09:07:23;;;;;;;256.93;245.53;;;5.70;99.90;;;;;;4408018;32;20150;-63
2022/02/11 09:09:58;;;;;;;256.57;244.50;;;5.70;99.90;;;;;;4407876;32;20158;-64
2022/02/11 09:12:37;;;;;;;208.97;199.03;;;5.90;99.90;;;;;;4405502;32;20147;-62
2022/02/11 09:17:53;;;;;;;190.27;181.13;;;6.00;99.90;;;;;;4331438;33;20755;-63
2022/02/11 09:20:23;;;;;;;219.83;209.07;;;6.00;99.90;;;;;;4331214;33;20161;-63
2022/02/11 09:22:58;;;;;;;215.63;205.57;;;6.00;99.90;;;;;;4345461;33;20702;-63
2022/02/11 09:25:32;;;;;;;187.67;178.80;;;6.00;99.90;;;;;;4347333;33;20156;-60
2022/02/11 09:28:02;;;;;;;153.53;145.70;;;5.80;99.90;;;;;;4340350;33;20176;-60
2022/02/11 09:30:33;;;;;;;166.00;157.93;;;5.50;99.90;;;;;;4345326;33;20199;-61
2022/02/11 09:33:08;;;;;;;138.10;131.60;;;5.50;99.90;;;;;;4345545;33;20208;-61
2022/02/11 09:35:49;;;;;;;160.40;151.83;;;5.60;99.90;;;;;;4346384;33;20187;-60
2022/02/11 09:38:19;;;;;;;115.13;108.97;;;5.80;99.90;;;;;;4345598;33;20187;-64
2022/02/11 09:40:56;;;;;;;125.33;118.37;;;6.20;99.90;;;;;;4344409;33;20184;-62
2022/02/11 09:43:34;;;;;;;136.40;129.87;;;6.20;99.90;;;;;;4331666;33;20505;-63
2022/02/11 09:46:08;;;;;;;117.63;111.77;;;5.90;99.90;;;;;;4330661;33;20161;-63
2022/02/11 09:48:36;;;;;;;135.23;128.80;;;5.80;99.90;;;;;;4330888;33;20192;-62
2022/02/11 09:51:10;;;;;;;121.17;115.53;;;5.80;99.90;;;;;;4330338;33;20486;-63
2022/02/11 09:53:41;;;;;;;126.70;120.63;;;5.90;99.90;;;;;;4331241;33;20142;-66
2022/02/11 09:56:08;;;;;;;121.37;115.57;;;6.10;99.90;;;;;;4385474;32;20172;-60
2022/02/11 09:58:43;;;;;;;138.57;131.93;;;6.30;99.90;;;;;;4393682;32;20155;-61
2022/02/11 10:01:12;;;;;;;113.67;108.33;;;6.60;99.90;;;;;;4393420;32;20151;-64
2022/02/11 10:03:48;;;;;;;61.43;57.83;;;7.10;99.90;;;;;;4393272;32;20137;-63
2022/02/11 10:06:20;;;;;;;89.37;84.37;;;7.20;99.90;;;;;;4393737;32;20125;-64
2022/02/11 10:08:49;;;;;;;96.37;90.70;;;7.20;99.90;;;;;;4393298;32;20167;-64
2022/02/11 10:11:17;;;;;;;103.90;99.07;;;7.10;99.90;;;;;;4392148;32;20185;-64
2022/02/11 10:13:48;;;;;;;118.20;112.60;;;7.00;99.90;;;;;;4388949;32;20463;-63
2022/02/11 10:16:20;;;;;;;98.93;93.60;;;7.10;99.90;;;;;;4391591;32;20194;-62
2022/02/11 10:19:00;;;;;;;126.73;120.87;;;6.90;99.90;;;;;;4392078;32;20203;-62
2022/02/11 10:21:35;;;;;;;106.90;101.10;;;6.90;99.90;;;;;;4392177;32;20189;-63
2022/02/11 10:24:06;;;;;;;131.03;124.70;;;6.60;99.90;;;;;;4393399;32;20136;-62
2022/02/11 10:26:34;;;;;;;133.93;125.73;;;6.40;99.90;;;;;;4391771;32;20560;-63
2022/02/11 10:29:04;;;;;;;122.73;115.83;;;6.30;99.90;;;;;;4392105;32;20191;-63
2022/02/11 10:31:35;;;;;;;107.10;101.33;;;6.10;99.90;;;;;;4391713;32;20567;-64
2022/02/11 10:34:07;;;;;;;106.80;101.40;;;6.10;99.90;;;;;;4404337;32;20140;-64
2022/02/11 10:36:43;;;;;;;107.57;102.07;;;6.10;99.90;;;;;;4406554;32;20234;-66
2022/02/11 10:39:16;;;;;;;109.43;103.93;;;6.20;99.90;;;;;;4406582;32;20548;-63
2022/02/11 10:41:53;;;;;;;124.00;118.17;;;6.20;99.90;;;;;;4406503;32;20145;-63
2022/02/11 10:44:27;;;;;;;99.27;93.87;;;6.30;99.90;;;;;;4406133;32;20140;-64
2022/02/11 10:47:00;;;;;;;91.47;86.73;;;6.30;99.90;;;;;;4406454;32;20150;-63
2022/02/11 10:49:42;;;;;;;60.60;57.17;;;6.30;99.90;;;;;;4406453;32;20148;-61
2022/02/11 10:52:17;;;;;;;64.40;61.10;;;6.40;99.90;;;;;;4406434;32;20128;-65
2022/02/11 10:54:53;;;;;;;92.30;87.83;;;6.50;99.90;;;;;;4400623;32;20155;-65
2022/02/11 10:57:26;;;;;;;92.73;88.13;;;6.50;99.90;;;;;;4407092;32;20156;-63
2022/02/11 11:00:00;;;;;;;65.03;61.70;;;6.50;99.90;;;;;;4405754;32;20133;-62
2022/02/11 11:02:35;;;;;;;50.73;47.93;;;6.50;99.30;;;;;;4392318;32;20166;-61
2022/02/11 11:05:35;;;;;;;42.00;39.50;;;6.50;99.00;;;;;;4391000;32;20529;-63
2022/02/11 11:08:16;;;;;;;43.10;40.13;;;6.60;98.60;;;;;;4390158;32;20168;-63
2022/02/11 11:10:53;;;;;;;35.77;33.63;;;6.80;98.70;;;;;;4395396;32;20582;-61
2022/02/11 11:13:23;;;;;;;31.40;28.77;;;7.20;97.50;;;;;;4406028;32;20165;-61
2022/02/11 11:16:00;;;;;;;34.77;32.17;;;7.40;97.40;;;;;;4406198;32;20170;-61
2022/02/11 11:18:36;;;;;;;31.33;28.63;;;7.70;97.80;;;;;;4405938;32;20168;-62
2022/02/11 11:21:04;;;;;;;35.90;33.60;;;7.90;97.00;;;;;;4401691;32;20144;-61
2022/02/11 11:23:37;;;;;;;38.23;35.77;;;8.20;97.70;;;;;;4390640;32;20121;-63
2022/02/11 11:26:35;;;;;;;39.77;37.47;;;8.40;97.50;;;;;;4391079;32;20186;-61
2022/02/11 11:29:12;;;;;;;40.57;37.67;;;7.90;97.40;;;;;;4390715;32;20201;-61
2022/02/11 11:31:57;;;;;;;45.43;42.73;;;8.00;98.00;;;;;;4393297;32;20148;-61
2022/02/11 11:34:39;;;;;;;44.37;41.60;;;8.00;98.90;;;;;;4390665;32;20138;-63
2022/02/11 11:37:12;;;;;;;48.33;44.77;;;8.00;98.30;;;;;;4390544;32;20151;-64
2022/02/11 11:39:48;;;;;;;44.30;41.43;;;7.90;97.60;;;;;;4390481;32;20141;-63
2022/02/11 11:42:25;;;;;;;49.43;46.00;;;7.70;98.30;;;;;;4397441;32;20139;-61
2022/02/11 11:44:56;;;;;;;42.87;39.83;;;7.80;99.10;;;;;;4405673;32;20131;-62
2022/02/11 11:47:33;;;;;;;45.83;42.93;;;7.70;97.60;;;;;;4405760;32;20234;-61
2022/02/11 11:50:18;;;;;;;42.50;40.13;;;7.70;98.10;;;;;;4405696;32;20151;-61
2022/02/11 11:52:56;;;;;;;49.10;46.10;;;7.60;97.50;;;;;;4405121;32;20159;-61
2022/02/11 11:55:38;;;;;;;50.27;46.37;;;7.60;98.00;;;;;;4405423;32;20142;-64
2022/02/11 11:58:05;;;;;;;52.57;49.40;;;7.70;98.20;;;;;;4405781;32;20132;-60
2022/02/11 12:01:02;;;;;;;40.90;38.47;;;7.70;98.50;;;;;;4405258;32;20536;-62
2022/02/11 12:03:55;;;;;;;49.33;46.50;;;7.60;97.80;;;;;;4327087;33;20215;-62
2022/02/11 12:06:22;;;;;;;42.90;40.20;;;7.70;98.70;;;;;;4328145;33;20141;-60
2022/02/11 12:09:11;;;;;;;46.40;42.80;;;7.80;98.50;;;;;;4328640;33;20161;-60
2022/02/11 12:11:43;;;;;;;43.40;40.17;;;8.10;98.20;;;;;;4329201;33;20174;-61
2022/02/11 12:14:12;;;;;;;44.90;42.17;;;8.30;97.70;;;;;;4315009;33;20150;-61
2022/02/11 12:17:06;;;;;;;40.90;38.37;;;8.30;97.60;;;;;;4314016;33;20180;-61
2022/02/11 12:19:51;;;;;;;;;;;;;;;;;;;;;
2022/02/11 12:22:28;;;;;;;39.90;37.43;;;8.10;97.10;;;;;;4303858;33;20196;-61
2022/02/11 12:27:57;;;;;;;37.63;34.23;;;8.30;97.50;;;;;;4314714;33;20579;-60
2022/02/11 12:30:27;;;;;;;37.50;35.03;;;8.20;95.60;;;;;;4315676;33;20164;-65
2022/02/11 12:33:06;;;;;;;41.67;39.03;;;8.00;95.80;;;;;;4319077;33;20158;-65
2022/02/11 12:35:37;;;;;;;48.67;45.90;;;8.00;96.30;;;;;;4328506;33;20197;-61
2022/02/11 12:38:13;;;;;;;42.77;39.43;;;8.10;97.10;;;;;;4330361;33;20465;-62
2022/02/11 12:40:49;;;;;;;44.63;41.83;;;7.90;96.40;;;;;;4378896;32;20158;-62
2022/02/11 12:43:32;;;;;;;47.10;44.23;;;7.30;96.50;;;;;;4398367;32;20166;-63
2022/02/11 12:48:51;;;;;;;44.73;41.07;;;6.80;98.70;;;;;;4407919;32;20151;-61
2022/02/11 12:51:25;;;;;;;45.70;43.27;;;6.70;98.50;;;;;;4408011;32;20158;-60
2022/02/11 12:54:03;;;;;;;48.23;45.17;;;6.70;98.10;;;;;;4407279;32;20159;-61
2022/02/11 12:56:36;;;;;;;52.07;48.73;;;6.70;98.30;;;;;;4408005;32;20140;-60
2022/02/11 12:59:16;;;;;;;46.00;43.10;;;6.70;98.20;;;;;;4407866;32;20199;-64
2022/02/11 13:01:57;;;;;;;47.97;45.63;;;6.90;97.70;;;;;;4408072;32;20208;-62
2022/02/11 13:04:30;;;;;;;45.57;43.03;;;7.10;98.30;;;;;;4407241;32;20205;-61
2022/02/11 13:07:18;;;;;;;47.43;44.73;;;7.20;97.20;;;;;;4407533;32;20177;-61
2022/02/11 13:09:57;;;;;;;37.73;35.33;;;7.20;97.40;;;;;;4407936;32;20143;-65
2022/02/11 13:12:39;;;;;;;39.37;36.73;;;7.40;97.20;;;;;;4407715;32;20215;-61
2022/02/11 13:15:20;;;;;;;31.77;29.30;;;7.40;97.30;;;;;;4406429;32;20159;-61
2022/02/11 13:18:01;;;;;;;30.83;28.47;;;7.30;95.30;;;;;;4407564;32;20588;-63
2022/02/11 13:20:37;;;;;;;29.60;27.77;;;7.30;96.10;;;;;;4407340;32;20155;-62
2022/02/11 13:23:21;;;;;;;34.83;32.33;;;7.30;95.20;;;;;;4406941;32;20176;-61
2022/02/11 13:26:27;;;;;;;;;;;;;;;;;;;;;
2022/02/11 13:29:18;;;;;;;35.07;33.17;;;7.00;95.40;;;;;;4353908;32;20175;-61
2022/02/11 13:31:54;;;;;;;32.57;30.73;;;6.90;95.80;;;;;;4355964;32;20199;-62
2022/02/11 13:34:32;;;;;;;34.43;32.10;;;6.80;96.20;;;;;;4348609;33;20153;-62
2022/02/11 13:37:18;;;;;;;42.43;39.43;;;6.70;95.90;;;;;;4357256;32;20200;-65
2022/02/11 13:39:52;;;;;;;44.13;41.60;;;6.60;96.60;;;;;;4354306;33;20534;-61
2022/02/11 13:42:45;;;;;;;45.20;42.40;;;6.60;97.10;;;;;;4353066;32;20195;-63
2022/02/11 13:45:34;;;;;;;34.90;32.87;;;6.50;97.40;;;;;;4353603;32;20164;-61
2022/02/11 13:48:28;;;;;;;;;;;;;;;;;;;;;
2022/02/11 13:51:05;;;;;;;35.80;33.53;;;6.70;96.60;;;;;;4356719;32;20183;-61
2022/02/11 13:53:56;;;;;;;37.90;35.77;;;6.80;96.40;;;;;;4354201;33;20178;-61
2022/02/11 13:56:43;;;;;;;42.60;40.23;;;6.90;96.00;;;;;;4352278;32;20176;-62
2022/02/11 13:59:25;;;;;;;36.17;34.00;;;7.20;96.80;;;;;;4352810;33;20170;-64
2022/02/11 14:02:07;;;;;;;39.97;37.97;;;7.40;95.60;;;;;;4355963;32;20144;-64
2022/02/11 14:07:36;;;;;;;33.87;31.67;;;7.30;94.70;;;;;;4340241;33;20176;-61
2022/02/11 14:10:20;;;;;;;29.83;27.63;;;7.30;94.60;;;;;;4336615;33;20157;-61
2022/02/11 14:13:09;;;;;;;30.03;27.83;;;7.40;94.00;;;;;;4342884;33;20179;-61
2022/02/11 14:15:39;;;;;;;34.53;32.23;;;7.30;94.40;;;;;;4343596;33;20170;-61
2022/02/11 14:18:14;;;;;;;39.30;37.13;;;7.50;94.70;;;;;;4344923;33;20162;-61
2022/02/11 14:20:49;;;;;;;36.23;34.37;;;7.60;94.90;;;;;;4343924;33;20207;-61
2022/02/11 14:26:16;;;;;;;36.53;34.30;;;7.60;94.80;;;;;;4342180;33;20215;-61
2022/02/11 14:29:07;;;;;;;42.07;39.53;;;7.30;94.50;;;;;;4343134;33;20156;-61
2022/02/11 14:31:35;;;;;;;45.80;43.23;;;7.00;94.70;;;;;;4359960;32;20198;-62
2022/02/11 14:34:08;;;;;;;48.90;46.50;;;6.90;95.20;;;;;;4405831;32;20178;-61
2022/02/11 14:36:39;;;;;;;55.00;51.90;;;6.80;95.50;;;;;;4406710;32;20214;-61
2022/02/11 14:39:14;;;;;;;55.10;50.97;;;6.60;96.50;;;;;;4406485;32;20170;-61
2022/02/11 14:47:42;;;;;;;53.07;50.23;;;6.80;96.50;;;;;;4404231;32;20179;-61
2022/02/11 14:50:28;;;;;;;55.87;52.97;;;7.10;96.10;;;;;;4403161;32;20171;-61
2022/02/11 14:52:55;;;;;;;51.77;49.10;;;7.30;96.00;;;;;;4405234;32;20158;-61
2022/02/11 14:55:30;;;;;;;49.53;46.97;;;7.50;95.90;;;;;;4406096;32;20149;-61
2022/02/11 14:57:58;;;;;;;62.00;58.53;;;7.50;95.60;;;;;;4404212;32;20240;-61
2022/02/11 15:00:35;;;;;;;56.77;53.77;;;7.40;95.80;;;;;;4405122;32;20201;-61
2022/02/11 15:10:00;;;;;;;58.47;55.17;;;7.30;96.10;;;;;;4341375;33;20195;-61
2022/02/11 15:13:08;;;;;;;;;;;;;;;;;;;;;
2022/02/11 15:16:01;;;;;;;47.90;45.30;;;7.20;96.30;;;;;;4342623;33;20566;-61
2022/02/11 15:18:41;;;;;;;58.17;55.23;;;7.20;96.50;;;;;;4343220;33;20211;-61
2022/02/11 15:21:08;;;;;;;63.77;60.50;;;7.20;97.00;;;;;;4341895;33;20172;-61
2022/02/11 15:24:03;;;;;;;80.30;75.93;;;7.10;97.80;;;;;;4342866;33;20144;-61
2022/02/11 15:26:41;;;;;;;76.27;72.60;;;6.90;98.70;;;;;;4342624;33;20173;-61
2022/02/11 15:29:15;;;;;;;80.57;76.00;;;6.70;99.50;;;;;;4343689;33;20153;-61
2022/02/11 15:31:52;;;;;;;79.17;75.53;;;6.50;99.90;;;;;;4340887;33;20539;-60
2022/02/11 15:34:21;;;;;;;88.67;84.17;;;6.30;99.90;;;;;;4343066;33;20516;-61
2022/02/11 15:37:00;;;;;;;91.07;85.87;;;6.10;99.90;;;;;;4341543;33;20659;-61
2022/02/11 15:39:34;;;;;;;78.47;74.40;;;6.00;99.90;;;;;;4347423;33;20149;-61
2022/02/11 15:42:31;;;;;;;84.60;80.10;;;6.10;99.90;;;;;;4345199;32;20210;-61
2022/02/11 15:45:06;;;;;;;75.67;71.73;;;6.00;99.90;;;;;;4404082;32;20544;-60
2022/02/11 15:47:41;;;;;;;87.50;82.80;;;5.90;99.90;;;;;;4404190;32;20155;-60
2022/02/11 15:50:14;;;;;;;99.10;94.20;;;5.90;99.90;;;;;;4389247;32;20171;-60
2022/02/11 15:52:52;;;;;;;82.73;78.50;;;5.90;99.90;;;;;;4404278;32;20135;-60
2022/02/11 15:55:24;;;;;;;76.60;72.53;;;5.90;99.90;;;;;;4405029;32;20140;-61
2022/02/11 15:57:51;;;;;;;80.07;75.47;;;5.80;99.90;;;;;;4404714;32;20617;-61
2022/02/11 16:00:24;;;;;;;84.57;80.53;;;5.80;99.90;;;;;;4405337;32;20155;-61
2022/02/11 16:03:07;;;;;;;87.43;83.30;;;5.70;99.90;;;;;;4403020;32;20216;-60
2022/02/11 16:05:50;;;;;;;81.33;77.13;;;5.60;99.90;;;;;;4403554;32;20493;-61
2022/02/11 16:08:25;;;;;;;81.90;78.07;;;5.60;99.90;;;;;;4396913;32;20549;-61
2022/02/11 16:11:01;;;;;;;79.20;75.50;;;5.50;99.90;;;;;;4398336;32;20159;-60
2022/02/11 16:13:34;;;;;;;86.03;82.03;;;5.50;99.90;;;;;;4393603;32;20215;-60
2022/02/11 16:16:01;;;;;;;91.33;86.93;;;5.40;99.90;;;;;;4397651;32;20231;-61
2022/02/11 16:18:40;;;;;;;89.83;85.17;;;5.40;99.90;;;;;;4395238;32;20185;-61
2022/02/11 16:21:09;;;;;;;85.47;81.53;;;5.30;99.90;;;;;;4396290;32;20151;-60
2022/02/11 16:26:20;;;;;;;78.87;75.13;;;5.20;99.90;;;;;;4398421;32;20203;-61
2022/02/11 16:29:00;;;;;;;83.67;80.20;;;5.10;99.90;;;;;;4393742;32;20136;-61
2022/02/11 16:32:00;;;;;;;86.47;81.67;;;5.00;99.90;;;;;;4389806;32;20191;-61
2022/02/11 16:34:28;;;;;;;83.20;79.00;;;5.00;99.90;;;;;;4396023;32;20549;-61
2022/02/11 16:36:59;;;;;;;81.00;76.50;;;5.00;99.90;;;;;;4394581;32;20136;-60
2022/02/11 16:39:27;;;;;;;82.87;78.70;;;4.80;99.90;;;;;;4391327;32;20140;-61
2022/02/11 16:42:24;;;;;;;92.03;87.50;;;4.80;99.90;;;;;;4389223;32;20132;-61
2022/02/11 16:45:01;;;;;;;82.40;78.57;;;4.70;99.90;;;;;;4390055;32;20132;-61
2022/02/11 16:47:43;;;;;;;87.63;83.30;;;4.60;99.90;;;;;;4397298;32;20140;-61
2022/02/11 16:50:13;;;;;;;91.40;87.03;;;4.60;99.90;;;;;;4394714;32;20141;-61
2022/02/11 16:52:51;;;;;;;91.17;87.20;;;4.60;99.90;;;;;;4393258;32;20187;-61
2022/02/11 16:55:21;;;;;;;86.47;82.20;;;4.50;99.90;;;;;;4395996;32;20151;-61
2022/02/11 16:57:57;;;;;;;95.67;91.03;;;4.50;99.90;;;;;;4393106;32;20133;-61
2022/02/11 17:00:30;;;;;;;95.77;91.50;;;4.50;99.90;;;;;;4394079;32;20166;-60
2022/02/11 17:03:06;;;;;;;92.37;87.47;;;4.40;99.90;;;;;;4390166;32;20170;-60
2022/02/11 17:06:00;;;;;;;96.60;91.93;;;4.40;99.90;;;;;;4392284;32;20186;-60
2022/02/11 17:08:29;;;;;;;89.23;84.67;;;4.30;99.90;;;;;;4386600;32;20592;-60
2022/02/11 17:11:04;;;;;;;91.43;86.97;;;4.20;99.90;;;;;;4393223;32;20141;-60
2022/02/11 17:13:34;;;;;;;89.00;84.80;;;4.10;99.90;;;;;;4391828;32;20170;-61
2022/02/11 17:16:14;;;;;;;94.47;90.23;;;4.20;99.90;;;;;;4385230;32;20219;-61
2022/02/11 17:19:10;;;;;;;84.27;80.33;;;4.10;99.90;;;;;;4396352;32;20151;-60